createdAt,value
2018-07-24T00:00:15.538Z,33.5
2018-07-24T00:01:05.891Z,33.5
2018-07-24T00:01:55.658Z,33.5
2018-07-24T00:02:45.711Z,33.5
2018-07-24T00:03:35.767Z,33.5
2018-07-24T00:04:25.247Z,33.5
2018-07-24T00:05:15.662Z,33.5
2018-07-24T00:06:06.530Z,33.5
2018-07-24T00:06:56.600Z,33.5
2018-07-24T00:07:46.129Z,33.4
2018-07-24T00:08:36.203Z,33.5
2018-07-24T00:09:26.013Z,33.5
2018-07-24T00:10:16.311Z,33.5
2018-07-24T00:11:07.590Z,33.5
2018-07-24T00:11:56.232Z,33.5
2018-07-24T00:12:45.713Z,33.5
2018-07-24T00:13:36.348Z,33.5
2018-07-24T00:14:26.638Z,33.4
2018-07-24T00:15:16.474Z,33.5
2018-07-24T00:16:06.797Z,33.5
2018-07-24T00:16:57.105Z,33.5
2018-07-24T00:17:46.871Z,33.4
2018-07-24T00:18:37.205Z,33.4
2018-07-24T00:19:27.372Z,33.4
2018-07-24T00:20:17.612Z,33.4
2018-07-24T00:21:07.170Z,33.5
2018-07-24T00:21:57.712Z,33.4
2018-07-24T00:22:46.640Z,33.4
2018-07-24T00:23:37.457Z,33.4
2018-07-24T00:24:27.073Z,33.4
2018-07-24T00:25:17.692Z,33.4
2018-07-24T00:26:07.781Z,33.4
2018-07-24T00:26:57.545Z,33.4
2018-07-24T00:27:47.124Z,33.4
2018-07-24T00:28:37.462Z,33.4
2018-07-24T00:29:27.433Z,33.4
2018-07-24T00:30:17.795Z,33.4
2018-07-24T00:31:08.148Z,33.4
2018-07-24T00:31:58.232Z,33.4
2018-07-24T00:32:48.010Z,33.4
2018-07-24T00:33:38.356Z,33.4
2018-07-24T00:34:28.557Z,33.4
2018-07-24T00:35:18.455Z,33.4
2018-07-24T00:36:08.814Z,33.4
2018-07-24T00:36:58.647Z,33.4
2018-07-24T00:37:48.091Z,33.4
2018-07-24T00:38:38.747Z,33.3
2018-07-24T00:39:27.963Z,33.4
2018-07-24T00:40:18.023Z,33.4
2018-07-24T00:41:08.971Z,33.3
2018-07-24T00:41:58.206Z,33.3
2018-07-24T00:42:49.345Z,33.3
2018-07-24T00:43:37.767Z,33.3
2018-07-24T00:44:29.203Z,33.3
2018-07-24T00:45:18.705Z,33.3
2018-07-24T00:46:09.650Z,33.3
2018-07-24T00:46:58.869Z,33.3
2018-07-24T00:47:49.207Z,33.3
2018-07-24T00:48:38.143Z,33.3
2018-07-24T00:49:29.952Z,33.3
2018-07-24T00:50:19.429Z,33.3
2018-07-24T00:51:09.501Z,33.3
2018-07-24T00:52:00.057Z,33.3
2018-07-24T00:52:49.889Z,33.3
2018-07-24T00:53:39.939Z,33.3
2018-07-24T00:54:29.759Z,33.3
2018-07-24T00:55:20.100Z,33.3
2018-07-24T00:56:10.158Z,33.3
2018-07-24T00:56:59.136Z,33.3
2018-07-24T00:57:49.501Z,33.3
2018-07-24T00:58:40.085Z,33.3
2018-07-24T00:59:28.461Z,33.3
2018-07-24T01:00:20.211Z,33.3
2018-07-24T01:01:10.149Z,33.3
2018-07-24T01:02:00.066Z,33.3
2018-07-24T01:02:50.428Z,33.3
2018-07-24T01:03:39.921Z,33.3
2018-07-24T01:04:30.799Z,33.3
2018-07-24T01:05:19.510Z,33.2
2018-07-24T01:06:10.871Z,33.2
2018-07-24T01:07:00.261Z,33.3
2018-07-24T01:07:50.494Z,33.3
2018-07-24T01:08:41.791Z,33.3
2018-07-24T01:09:30.429Z,33.2
2018-07-24T01:10:20.455Z,33.2
2018-07-24T01:11:10.834Z,33.3
2018-07-24T01:11:59.704Z,33.3
2018-07-24T01:12:50.923Z,33.2
2018-07-24T01:13:40.991Z,33.2
2018-07-24T01:14:31.521Z,33.2
2018-07-24T01:15:21.079Z,33.2
2018-07-24T01:16:11.011Z,33.2
2018-07-24T01:17:00.633Z,33.2
2018-07-24T01:17:51.521Z,33.2
2018-07-24T01:18:41.066Z,33.2
2018-07-24T01:19:31.440Z,33.2
2018-07-24T01:20:21.898Z,33.1
2018-07-24T01:21:10.680Z,33.2
2018-07-24T01:22:01.325Z,33.1
2018-07-24T01:22:51.349Z,33.1
2018-07-24T01:23:41.354Z,33.1
2018-07-24T01:24:31.726Z,33.1
2018-07-24T01:25:22.345Z,33.2
2018-07-24T01:26:12.652Z,33.1
2018-07-24T01:27:02.703Z,33.1
2018-07-24T01:27:52.800Z,33.1
2018-07-24T01:28:42.620Z,33.1
2018-07-24T01:29:32.359Z,33.1
2018-07-24T01:30:22.694Z,33.1
2018-07-24T01:31:12.533Z,33.1
2018-07-24T01:32:01.860Z,33.1
2018-07-24T01:32:52.944Z,33.1
2018-07-24T01:33:42.510Z,33.1
2018-07-24T01:34:32.820Z,33.1
2018-07-24T01:35:22.577Z,33.1
2018-07-24T01:36:12.941Z,33.1
2018-07-24T01:37:03.236Z,33.1
2018-07-24T01:37:53.098Z,33.1
2018-07-24T01:38:43.411Z,33.1
2018-07-24T01:39:33.433Z,33.1
2018-07-24T01:40:23.234Z,33.1
2018-07-24T01:41:13.629Z,33.1
2018-07-24T01:42:03.090Z,33.1
2018-07-24T01:42:52.974Z,33.1
2018-07-24T01:43:43.088Z,33.1
2018-07-24T01:44:33.097Z,33.1
2018-07-24T01:45:23.136Z,33.1
2018-07-24T01:46:12.692Z,33.1
2018-07-24T01:47:02.729Z,33.1
2018-07-24T01:47:53.051Z,33.1
2018-07-24T01:48:43.398Z,33.1
2018-07-24T01:49:32.909Z,33.1
2018-07-24T01:50:23.809Z,33.1
2018-07-24T01:51:13.313Z,33.1
2018-07-24T01:52:03.846Z,33.1
2018-07-24T01:52:53.678Z,33
2018-07-24T01:53:44.206Z,33
2018-07-24T01:54:34.639Z,33
2018-07-24T01:55:24.947Z,33
2018-07-24T01:56:14.194Z,33
2018-07-24T01:57:03.974Z,33
2018-07-24T01:57:54.320Z,33
2018-07-24T01:58:44.622Z,33
2018-07-24T01:59:34.435Z,32.9
2018-07-24T02:00:24.212Z,32.9
2018-07-24T02:01:14.547Z,32.9
2018-07-24T02:02:04.859Z,33
2018-07-24T02:02:55.482Z,32.9
2018-07-24T02:03:45.280Z,32.9
2018-07-24T02:04:35.393Z,32.9
2018-07-24T02:05:25.690Z,32.9
2018-07-24T02:06:14.959Z,32.9
2018-07-24T02:07:05.624Z,32.9
2018-07-24T02:07:55.997Z,32.9
2018-07-24T02:08:44.395Z,32.9
2018-07-24T02:09:36.073Z,32.9
2018-07-24T02:10:25.567Z,32.9
2018-07-24T02:11:15.925Z,32.9
2018-07-24T02:12:05.439Z,32.9
2018-07-24T02:12:56.272Z,32.9
2018-07-24T02:13:45.538Z,32.9
2018-07-24T02:14:36.200Z,32.9
2018-07-24T02:15:25.947Z,32.9
2018-07-24T02:16:16.605Z,32.9
2018-07-24T02:17:05.876Z,32.9
2018-07-24T02:17:55.870Z,32.9
2018-07-24T02:18:46.190Z,32.8
2018-07-24T02:19:36.829Z,32.9
2018-07-24T02:20:26.334Z,32.9
2018-07-24T02:21:16.124Z,32.8
2018-07-24T02:22:06.271Z,32.8
2018-07-24T02:22:56.037Z,32.8
2018-07-24T02:23:46.696Z,32.8
2018-07-24T02:24:35.578Z,32.8
2018-07-24T02:25:26.495Z,32.8
2018-07-24T02:26:16.307Z,32.8
2018-07-24T02:27:06.128Z,32.8
2018-07-24T02:27:56.661Z,32.8
2018-07-24T02:28:46.641Z,32.8
2018-07-24T02:29:36.596Z,32.8
2018-07-24T02:30:27.103Z,32.8
2018-07-24T02:31:17.449Z,32.8
2018-07-24T02:32:07.431Z,32.8
2018-07-24T02:32:57.927Z,32.8
2018-07-24T02:33:47.632Z,32.8
2018-07-24T02:34:37.789Z,32.8
2018-07-24T02:35:28.033Z,32.8
2018-07-24T02:36:17.876Z,32.8
2018-07-24T02:37:07.603Z,32.8
2018-07-24T02:37:57.693Z,32.8
2018-07-24T02:38:48.290Z,32.8
2018-07-24T02:39:38.327Z,32.8
2018-07-24T02:40:28.119Z,32.8
2018-07-24T02:41:18.468Z,32.8
2018-07-24T02:42:08.289Z,32.8
2018-07-24T02:42:58.345Z,32.8
2018-07-24T02:43:48.432Z,32.8
2018-07-24T02:44:38.464Z,32.8
2018-07-24T02:45:28.272Z,32.8
2018-07-24T02:46:18.602Z,32.8
2018-07-24T02:47:08.120Z,32.8
2018-07-24T02:47:58.727Z,32.8
2018-07-24T02:48:48.606Z,32.8
2018-07-24T02:49:38.875Z,32.8
2018-07-24T02:50:28.724Z,32.8
2018-07-24T02:51:18.707Z,32.8
2018-07-24T02:52:08.843Z,32.8
2018-07-24T02:52:59.153Z,32.8
2018-07-24T02:53:49.189Z,32.7
2018-07-24T02:54:39.251Z,32.7
2018-07-24T02:55:29.076Z,32.7
2018-07-24T02:56:17.824Z,32.7
2018-07-24T02:57:08.972Z,32.6
2018-07-24T02:57:59.063Z,32.6
2018-07-24T02:58:48.818Z,32.6
2018-07-24T02:59:39.060Z,32.6
2018-07-24T03:00:28.340Z,32.6
2018-07-24T03:01:19.769Z,32.6
2018-07-24T03:02:09.837Z,32.6
2018-07-24T03:02:59.324Z,32.6
2018-07-24T03:03:50.081Z,32.6
2018-07-24T03:04:39.761Z,32.6
2018-07-24T03:05:30.081Z,32.6
2018-07-24T03:06:20.142Z,32.6
2018-07-24T03:07:09.637Z,32.6
2018-07-24T03:07:59.939Z,32.6
2018-07-24T03:08:50.119Z,32.5
2018-07-24T03:09:40.123Z,32.5
2018-07-24T03:10:29.863Z,32.5
2018-07-24T03:11:19.969Z,32.5
2018-07-24T03:12:10.623Z,32.5
2018-07-24T03:13:00.938Z,32.4
2018-07-24T03:13:50.987Z,32.4
2018-07-24T03:14:41.031Z,32.4
2018-07-24T03:15:31.159Z,32.4
2018-07-24T03:16:21.495Z,32.4
2018-07-24T03:17:09.693Z,32.4
2018-07-24T03:18:00.251Z,32.4
2018-07-24T03:18:50.663Z,32.4
2018-07-24T03:19:40.714Z,32.4
2018-07-24T03:20:30.777Z,32.4
2018-07-24T03:21:21.113Z,32.3
2018-07-24T03:22:11.108Z,32.3
2018-07-24T03:23:00.864Z,32.4
2018-07-24T03:23:50.670Z,32.4
2018-07-24T03:24:41.257Z,32.4
2018-07-24T03:25:31.120Z,32.4
2018-07-24T03:26:21.428Z,32.4
2018-07-24T03:27:11.801Z,32.4
2018-07-24T03:28:01.553Z,32.4
2018-07-24T03:28:51.325Z,32.4
2018-07-24T03:29:41.675Z,32.3
2018-07-24T03:30:31.958Z,32.4
2018-07-24T03:31:21.524Z,32.4
2018-07-24T03:32:11.590Z,32.3
2018-07-24T03:33:01.624Z,32.3
2018-07-24T03:33:52.580Z,32.3
2018-07-24T03:34:42.336Z,32.3
2018-07-24T03:35:31.295Z,32.3
2018-07-24T03:36:21.932Z,32.3
2018-07-24T03:37:12.555Z,32.3
2018-07-24T03:38:02.322Z,32.3
2018-07-24T03:38:52.381Z,32.4
2018-07-24T03:39:44.042Z,32.3
2018-07-24T03:40:33.044Z,32.3
2018-07-24T03:41:22.824Z,32.3
2018-07-24T03:42:12.297Z,32.3
2018-07-24T03:43:03.002Z,32.3
2018-07-24T03:43:52.450Z,32.3
2018-07-24T03:44:43.122Z,32.3
2018-07-24T03:45:33.115Z,32.3
2018-07-24T03:46:22.481Z,32.3
2018-07-24T03:47:12.740Z,32.3
2018-07-24T03:48:03.412Z,32.3
2018-07-24T03:48:53.177Z,32.3
2018-07-24T03:49:42.935Z,32.3
2018-07-24T03:50:33.796Z,32.3
2018-07-24T03:51:23.616Z,32.3
2018-07-24T03:52:13.645Z,32.3
2018-07-24T03:53:02.498Z,32.3
2018-07-24T03:53:51.621Z,32.3
2018-07-24T03:54:42.374Z,32.3
2018-07-24T03:55:33.906Z,32.3
2018-07-24T03:56:23.670Z,32.3
2018-07-24T03:57:14.091Z,32.3
2018-07-24T03:58:05.319Z,32.3
2018-07-24T03:58:54.277Z,32.3
2018-07-24T03:59:44.252Z,32.3
2018-07-24T04:00:33.741Z,32.3
2018-07-24T04:01:24.636Z,32.3
2018-07-24T04:02:13.027Z,32.3
2018-07-24T04:03:04.287Z,32.3
2018-07-24T04:03:53.182Z,32.3
2018-07-24T04:04:43.338Z,32.3
2018-07-24T04:05:33.490Z,32.3
2018-07-24T04:06:23.633Z,32.2
2018-07-24T04:07:12.947Z,32.2
2018-07-24T04:08:03.599Z,32.2
2018-07-24T04:08:53.917Z,32.2
2018-07-24T04:09:43.087Z,32.2
2018-07-24T04:10:33.931Z,32.2
2018-07-24T04:11:23.051Z,32.2
2018-07-24T04:12:14.631Z,32.2
2018-07-24T04:13:05.562Z,32.2
2018-07-24T04:13:55.065Z,32.2
2018-07-24T04:14:45.378Z,32.2
2018-07-24T04:15:34.929Z,32.2
2018-07-24T04:16:24.987Z,32.2
2018-07-24T04:17:14.747Z,32.2
2018-07-24T04:18:05.914Z,32.2
2018-07-24T04:18:55.743Z,32.2
2018-07-24T04:19:46.073Z,32.2
2018-07-24T04:20:35.867Z,32.1
2018-07-24T04:21:25.910Z,32.1
2018-07-24T04:22:15.457Z,32.1
2018-07-24T04:23:05.792Z,32.1
2018-07-24T04:23:55.870Z,32.1
2018-07-24T04:24:46.150Z,32.1
2018-07-24T04:25:36.210Z,32.1
2018-07-24T04:26:25.497Z,32.1
2018-07-24T04:27:16.105Z,32.1
2018-07-24T04:28:06.398Z,32.1
2018-07-24T04:28:55.914Z,32.1
2018-07-24T04:29:46.043Z,32.1
2018-07-24T04:30:36.637Z,32
2018-07-24T04:31:26.632Z,32
2018-07-24T04:32:16.085Z,32
2018-07-24T04:33:06.343Z,32
2018-07-24T04:33:56.596Z,31.9
2018-07-24T04:34:46.393Z,31.9
2018-07-24T04:35:37.280Z,31.9
2018-07-24T04:36:27.257Z,31.9
2018-07-24T04:37:16.042Z,31.9
2018-07-24T04:38:07.227Z,31.9
2018-07-24T04:38:57.258Z,31.9
2018-07-24T04:39:47.308Z,31.9
2018-07-24T04:40:37.124Z,31.9
2018-07-24T04:41:26.611Z,31.9
2018-07-24T04:42:17.291Z,31.9
2018-07-24T04:43:07.584Z,31.9
2018-07-24T04:43:56.488Z,31.8
2018-07-24T04:44:47.213Z,31.9
2018-07-24T04:45:37.274Z,31.8
2018-07-24T04:46:27.303Z,31.8
2018-07-24T04:47:17.905Z,31.8
2018-07-24T04:48:07.743Z,31.8
2018-07-24T04:48:58.018Z,31.8
2018-07-24T04:49:47.760Z,31.8
2018-07-24T04:50:38.164Z,31.8
2018-07-24T04:51:28.188Z,31.8
2018-07-24T04:52:18.308Z,31.8
2018-07-24T04:53:08.611Z,31.8
2018-07-24T04:53:57.852Z,31.8
2018-07-24T04:54:47.932Z,31.8
2018-07-24T04:55:38.265Z,31.8
2018-07-24T04:56:28.929Z,31.8
2018-07-24T04:57:18.375Z,31.8
2018-07-24T04:58:08.743Z,31.8
2018-07-24T04:58:58.265Z,31.8
2018-07-24T04:59:48.290Z,31.8
2018-07-24T05:00:38.372Z,31.8
2018-07-24T05:01:28.184Z,31.8
2018-07-24T05:02:18.504Z,31.8
2018-07-24T05:03:09.335Z,31.8
2018-07-24T05:03:59.499Z,31.8
2018-07-24T05:04:49.235Z,31.8
2018-07-24T05:05:39.577Z,31.8
2018-07-24T05:06:29.672Z,31.8
2018-07-24T05:07:19.791Z,31.8
2018-07-24T05:08:08.698Z,31.8
2018-07-24T05:08:59.843Z,31.8
2018-07-24T05:09:48.567Z,31.8
2018-07-24T05:10:37.865Z,31.8
2018-07-24T05:11:28.194Z,31.8
2018-07-24T05:12:18.519Z,31.8
2018-07-24T05:13:08.512Z,31.8
2018-07-24T05:13:58.657Z,31.8
2018-07-24T05:14:49.257Z,31.8
2018-07-24T05:15:38.519Z,31.8
2018-07-24T05:16:30.029Z,31.8
2018-07-24T05:17:18.139Z,31.8
2018-07-24T05:18:09.536Z,31.8
2018-07-24T05:18:58.809Z,31.8
2018-07-24T05:19:50.416Z,31.8
2018-07-24T05:20:40.456Z,31.8
2018-07-24T05:21:30.229Z,31.8
2018-07-24T05:22:20.635Z,31.8
2018-07-24T05:23:10.724Z,31.8
2018-07-24T05:24:00.604Z,31.8
2018-07-24T05:24:50.892Z,31.8
2018-07-24T05:25:40.166Z,31.8
2018-07-24T05:26:31.272Z,31.8
2018-07-24T05:27:20.684Z,31.8
2018-07-24T05:28:11.339Z,31.8
2018-07-24T05:29:00.869Z,31.8
2018-07-24T05:29:51.473Z,31.8
2018-07-24T05:30:40.948Z,31.8
2018-07-24T05:31:31.529Z,31.8
2018-07-24T05:32:21.335Z,31.8
2018-07-24T05:33:10.967Z,31.8
2018-07-24T05:34:01.013Z,31.8
2018-07-24T05:34:51.615Z,31.7
2018-07-24T05:35:40.472Z,31.7
2018-07-24T05:36:30.546Z,31.7
2018-07-24T05:37:22.026Z,31.7
2018-07-24T05:38:11.490Z,31.7
2018-07-24T05:39:01.872Z,31.7
2018-07-24T05:39:51.615Z,31.7
2018-07-24T05:40:41.812Z,31.6
2018-07-24T05:41:32.289Z,31.7
2018-07-24T05:42:21.114Z,31.7
2018-07-24T05:43:11.906Z,31.6
2018-07-24T05:44:01.746Z,31.7
2018-07-24T05:44:52.632Z,31.7
2018-07-24T05:45:42.353Z,31.6
2018-07-24T05:46:32.144Z,31.6
2018-07-24T05:47:22.788Z,31.6
2018-07-24T05:48:12.582Z,31.6
2018-07-24T05:49:03.928Z,31.6
2018-07-24T05:49:51.948Z,31.6
2018-07-24T05:50:42.019Z,31.6
2018-07-24T05:51:33.068Z,31.6
2018-07-24T05:52:22.330Z,31.6
2018-07-24T05:53:12.966Z,31.6
2018-07-24T05:54:03.353Z,31.6
2018-07-24T05:54:53.060Z,31.6
2018-07-24T05:55:42.988Z,31.6
2018-07-24T05:56:32.628Z,31.6
2018-07-24T05:57:22.421Z,31.6
2018-07-24T05:58:13.053Z,31.6
2018-07-24T05:59:03.374Z,31.6
2018-07-24T05:59:53.728Z,31.6
2018-07-24T06:00:43.844Z,31.6
2018-07-24T06:01:33.342Z,31.6
2018-07-24T06:02:23.399Z,31.6
2018-07-24T06:03:13.735Z,31.6
2018-07-24T06:04:04.125Z,31.6
2018-07-24T06:04:53.607Z,31.5
2018-07-24T06:05:43.941Z,31.5
2018-07-24T06:06:33.754Z,31.5
2018-07-24T06:07:24.702Z,31.5
2018-07-24T06:08:14.392Z,31.5
2018-07-24T06:09:04.442Z,31.5
2018-07-24T06:09:54.566Z,31.5
2018-07-24T06:10:44.616Z,31.5
2018-07-24T06:11:34.078Z,31.5
2018-07-24T06:12:24.156Z,31.5
2018-07-24T06:13:15.918Z,31.5
2018-07-24T06:14:04.552Z,31.5
2018-07-24T06:14:54.316Z,31.5
2018-07-24T06:15:44.988Z,31.5
2018-07-24T06:16:34.322Z,31.5
2018-07-24T06:17:25.131Z,31.4
2018-07-24T06:18:14.916Z,31.4
2018-07-24T06:19:04.411Z,31.4
2018-07-24T06:19:54.709Z,31.4
2018-07-24T06:20:44.476Z,31.4
2018-07-24T06:21:35.104Z,31.4
2018-07-24T06:22:24.646Z,31.4
2018-07-24T06:23:14.993Z,31.4
2018-07-24T06:24:05.606Z,31.4
2018-07-24T06:24:55.651Z,31.4
2018-07-24T06:25:45.461Z,31.4
2018-07-24T06:26:35.215Z,31.4
2018-07-24T06:27:25.328Z,31.4
2018-07-24T06:28:15.384Z,31.4
2018-07-24T06:29:05.679Z,31.4
2018-07-24T06:29:55.753Z,31.4
2018-07-24T06:30:46.102Z,31.4
2018-07-24T06:31:35.887Z,31.4
2018-07-24T06:32:25.996Z,31.4
2018-07-24T06:33:15.709Z,31.4
2018-07-24T06:34:05.800Z,31.4
2018-07-24T06:34:56.541Z,31.4
2018-07-24T06:35:45.962Z,31.4
2018-07-24T06:36:35.540Z,31.3
2018-07-24T06:37:26.069Z,31.3
2018-07-24T06:38:15.539Z,31.3
2018-07-24T06:39:05.671Z,31.3
2018-07-24T06:39:56.294Z,31.3
2018-07-24T06:40:46.633Z,31.3
2018-07-24T06:41:36.691Z,31.3
2018-07-24T06:42:27.017Z,31.3
2018-07-24T06:43:17.118Z,31.3
2018-07-24T06:44:07.187Z,31.3
2018-07-24T06:44:56.969Z,31.3
2018-07-24T06:45:47.064Z,31.3
2018-07-24T06:46:36.529Z,31.3
2018-07-24T06:47:27.149Z,31.3
2018-07-24T06:48:16.703Z,31.3
2018-07-24T06:49:06.986Z,31.3
2018-07-24T06:49:57.281Z,31.3
2018-07-24T06:50:47.113Z,31.3
2018-07-24T06:51:37.187Z,31.3
2018-07-24T06:52:27.837Z,31.3
2018-07-24T06:53:17.556Z,31.3
2018-07-24T06:54:07.346Z,31.3
2018-07-24T06:54:57.959Z,28.3
2018-07-24T06:55:47.093Z,28.8
2018-07-24T06:56:38.845Z,33.2
2018-07-24T06:57:27.903Z,34
2018-07-24T06:58:17.149Z,32.6
2018-07-24T06:59:07.987Z,30.8
2018-07-24T06:59:58.124Z,29.6
2018-07-24T07:00:48.385Z,29.6
2018-07-24T07:01:37.954Z,30.1
2018-07-24T07:02:27.707Z,30.7
2018-07-24T07:03:18.010Z,31.1
2018-07-24T07:04:08.403Z,31.3
2018-07-24T07:04:58.937Z,31.2
2018-07-24T07:05:47.993Z,31.1
2018-07-24T07:06:38.590Z,31.1
2018-07-24T07:07:28.504Z,31.1
2018-07-24T07:08:18.480Z,31.3
2018-07-24T07:09:08.772Z,31.3
2018-07-24T07:09:58.835Z,31.4
2018-07-24T07:10:48.349Z,31.4
2018-07-24T07:11:39.284Z,31.4
2018-07-24T07:12:28.777Z,31.5
2018-07-24T07:13:19.883Z,31.6
2018-07-24T07:14:08.875Z,31.8
2018-07-24T07:14:58.728Z,31.7
2018-07-24T07:15:49.051Z,31.7
2018-07-24T07:16:39.434Z,31.7
2018-07-24T07:17:28.876Z,31.8
2018-07-24T07:18:19.485Z,31.8
2018-07-24T07:19:09.874Z,31.9
2018-07-24T07:19:59.340Z,31.9
2018-07-24T07:20:49.817Z,31.9
2018-07-24T07:21:39.776Z,31.9
2018-07-24T07:22:29.521Z,32
2018-07-24T07:23:20.602Z,32.1
2018-07-24T07:24:09.651Z,32.2
2018-07-24T07:24:59.719Z,32.3
2018-07-24T07:25:49.795Z,32.3
2018-07-24T07:26:40.481Z,32.4
2018-07-24T07:27:30.510Z,32.4
2018-07-24T07:28:20.190Z,32.4
2018-07-24T07:29:11.111Z,32.5
2018-07-24T07:30:00.359Z,32.6
2018-07-24T07:30:50.460Z,32.6
2018-07-24T07:31:40.282Z,32.7
2018-07-24T07:32:31.433Z,32.7
2018-07-24T07:33:20.629Z,32.7
2018-07-24T07:34:11.005Z,32.8
2018-07-24T07:35:00.185Z,32.8
2018-07-24T07:35:51.075Z,32.7
2018-07-24T07:36:40.160Z,32.6
2018-07-24T07:37:31.263Z,32.4
2018-07-24T07:38:20.431Z,32.4
2018-07-24T07:39:11.616Z,32.3
2018-07-24T07:40:00.856Z,32.3
2018-07-24T07:40:51.239Z,32.3
2018-07-24T07:41:40.825Z,32.3
2018-07-24T07:42:31.341Z,32.3
2018-07-24T07:43:20.897Z,32.3
2018-07-24T07:44:11.209Z,32.3
2018-07-24T07:45:01.567Z,32.4
2018-07-24T07:45:51.615Z,32.4
2018-07-24T07:46:40.617Z,32.4
2018-07-24T07:47:32.089Z,32.5
2018-07-24T07:48:21.593Z,32.6
2018-07-24T07:49:11.358Z,32.7
2018-07-24T07:50:01.986Z,32.8
2018-07-24T07:50:51.462Z,32.8
2018-07-24T07:51:41.544Z,32.8
2018-07-24T07:52:33.499Z,32.7
2018-07-24T07:53:21.920Z,32.7
2018-07-24T07:54:12.569Z,32.6
2018-07-24T07:55:01.478Z,32.6
2018-07-24T07:55:51.551Z,32.6
2018-07-24T07:56:42.742Z,32.6
2018-07-24T07:57:32.842Z,32.6
2018-07-24T07:58:21.767Z,32.6
2018-07-24T07:59:12.946Z,32.6
2018-07-24T08:00:02.696Z,32.6
2018-07-24T08:00:52.801Z,32.6
2018-07-24T08:01:42.938Z,32.7
2018-07-24T08:02:33.445Z,32.8
2018-07-24T08:03:23.000Z,32.9
2018-07-24T08:04:12.184Z,33
2018-07-24T08:05:03.428Z,33.1
2018-07-24T08:05:52.910Z,33.2
2018-07-24T08:06:43.570Z,33.3
2018-07-24T08:07:33.224Z,33.4
2018-07-24T08:08:23.615Z,33.4
2018-07-24T08:09:13.377Z,33.4
2018-07-24T08:10:03.180Z,33.4
2018-07-24T08:10:53.853Z,33.4
2018-07-24T08:11:43.858Z,33.4
2018-07-24T08:12:34.583Z,33.5
2018-07-24T08:13:23.755Z,33.7
2018-07-24T08:14:14.320Z,33.9
2018-07-24T08:15:03.326Z,34.1
2018-07-24T08:15:52.839Z,34.3
2018-07-24T08:16:44.285Z,34.3
2018-07-24T08:17:34.030Z,34.3
2018-07-24T08:18:24.383Z,34.4
2018-07-24T08:19:13.586Z,34.6
2018-07-24T08:20:04.516Z,34.8
2018-07-24T08:20:54.295Z,35.2
2018-07-24T08:21:44.106Z,35.6
2018-07-24T08:22:34.462Z,36.2
2018-07-24T08:23:24.530Z,36.6
2018-07-24T08:24:14.316Z,37.1
2018-07-24T08:25:04.419Z,37.3
2018-07-24T08:25:54.729Z,37.2
2018-07-24T08:26:44.522Z,37.2
2018-07-24T08:27:34.879Z,37.3
2018-07-24T08:28:24.896Z,37.7
2018-07-24T08:29:29.627Z,37.9
2018-07-24T08:30:04.479Z,38
2018-07-24T08:30:55.146Z,38.1
2018-07-24T08:31:44.631Z,38.1
2018-07-24T08:32:35.267Z,38.1
2018-07-24T08:33:25.029Z,38.1
2018-07-24T08:34:15.082Z,38.1
2018-07-24T08:35:05.711Z,38.1
2018-07-24T08:35:55.501Z,38.1
2018-07-24T08:36:45.294Z,38.2
2018-07-24T08:37:35.873Z,38.8
2018-07-24T08:38:25.413Z,39.9
2018-07-24T08:39:15.473Z,41.1
2018-07-24T08:40:05.247Z,41.9
2018-07-24T08:40:55.869Z,41.9
2018-07-24T08:41:46.206Z,41.6
2018-07-24T08:42:35.673Z,41.1
2018-07-24T08:43:26.016Z,40.7
2018-07-24T08:44:16.166Z,40.3
2018-07-24T08:45:05.947Z,40
2018-07-24T08:45:56.531Z,39.8
2018-07-24T08:46:46.324Z,39.6
2018-07-24T08:47:36.093Z,39.5
2018-07-24T08:48:26.486Z,39.4
2018-07-24T08:49:16.939Z,39.4
2018-07-24T08:50:06.936Z,39.7
2018-07-24T08:50:56.632Z,39.9
2018-07-24T08:51:47.027Z,40.3
2018-07-24T08:52:37.039Z,40.6
2018-07-24T08:53:30.053Z,40.8
2018-07-24T08:54:20.172Z,40.9
2018-07-24T08:55:11.017Z,40.9
2018-07-24T08:55:57.023Z,40.9
2018-07-24T08:56:46.798Z,40.8
2018-07-24T08:57:37.071Z,40.5
2018-07-24T08:58:26.937Z,40.3
2018-07-24T08:59:16.976Z,40.1
2018-07-24T09:00:07.421Z,39.9
2018-07-24T09:00:57.741Z,39.8
2018-07-24T09:01:46.915Z,39.8
2018-07-24T09:02:37.266Z,39.7
2018-07-24T09:03:28.230Z,39.6
2018-07-24T09:04:17.741Z,39.6
2018-07-24T09:05:07.239Z,39.5
2018-07-24T09:05:57.515Z,39.5
2018-07-24T09:06:47.569Z,39.4
2018-07-24T09:07:37.636Z,39.4
2018-07-24T09:08:27.742Z,39.3
2018-07-24T09:09:18.059Z,39.3
2018-07-24T09:10:08.540Z,39.3
2018-07-24T09:10:58.471Z,39.3
2018-07-24T09:11:48.279Z,39.3
2018-07-24T09:12:38.592Z,39.4
2018-07-24T09:13:28.298Z,39.4
2018-07-24T09:14:18.708Z,39.6
2018-07-24T09:15:08.511Z,39.6
2018-07-24T09:15:58.577Z,39.7
2018-07-24T09:16:48.884Z,39.8
2018-07-24T09:17:38.948Z,39.8
2018-07-24T09:18:29.041Z,39.8
2018-07-24T09:19:18.890Z,39.9
2018-07-24T09:20:08.867Z,40
2018-07-24T09:20:59.299Z,40.1
2018-07-24T09:21:49.250Z,40.3
2018-07-24T09:22:38.890Z,40.6
2018-07-24T09:23:29.107Z,40.9
2018-07-24T09:24:18.940Z,41.3
2018-07-24T09:25:09.541Z,41.6
2018-07-24T09:25:58.778Z,42
2018-07-24T09:26:49.398Z,42.4
2018-07-24T09:27:39.754Z,43
2018-07-24T09:28:29.794Z,43.6
2018-07-24T09:29:19.085Z,44.4
2018-07-24T09:30:09.110Z,45.1
2018-07-24T09:30:59.993Z,45.8
2018-07-24T09:31:49.795Z,46.5
2018-07-24T09:32:39.859Z,47
2018-07-24T09:33:29.677Z,47.3
2018-07-24T09:34:20.055Z,47.1
2018-07-24T09:35:09.764Z,46.8
2018-07-24T09:35:59.829Z,46.4
2018-07-24T09:36:49.945Z,46
2018-07-24T09:37:39.731Z,45.6
2018-07-24T09:38:30.052Z,45.4
2018-07-24T09:39:20.174Z,45.2
2018-07-24T09:40:10.764Z,45.1
2018-07-24T09:41:00.232Z,45.1
2018-07-24T09:41:50.923Z,45.3
2018-07-24T09:42:40.987Z,45.4
2018-07-24T09:43:30.727Z,45.4
2018-07-24T09:44:20.837Z,45.5
2018-07-24T09:45:10.881Z,45.5
2018-07-24T09:46:01.206Z,45.6
2018-07-24T09:46:50.996Z,45.6
2018-07-24T09:47:41.342Z,45.6
2018-07-24T09:48:31.204Z,45.7
2018-07-24T09:49:21.159Z,45.8
2018-07-24T09:50:10.930Z,46
2018-07-24T09:51:01.600Z,46.3
2018-07-24T09:51:51.375Z,46.4
2018-07-24T09:52:41.516Z,46.6
2018-07-24T09:53:30.894Z,46.7
2018-07-24T09:54:21.626Z,46.8
2018-07-24T09:55:11.445Z,46.8
2018-07-24T09:56:01.964Z,47
2018-07-24T09:56:51.723Z,47.3
2018-07-24T09:57:42.127Z,47.4
2018-07-24T09:58:31.551Z,47.6
2018-07-24T09:59:23.346Z,47.6
2018-07-24T10:00:12.279Z,47.6
2018-07-24T10:01:01.630Z,47.5
2018-07-24T10:01:51.848Z,47.5
2018-07-24T10:02:41.913Z,47.6
2018-07-24T10:03:32.341Z,47.8
2018-07-24T10:04:21.763Z,47.9
2018-07-24T10:05:12.682Z,48
2018-07-24T10:06:02.519Z,48.1
2018-07-24T10:06:52.592Z,48
2018-07-24T10:07:42.163Z,47.9
2018-07-24T10:08:32.102Z,47.7
2018-07-24T10:09:22.505Z,47.5
2018-07-24T10:10:13.008Z,47.4
2018-07-24T10:11:02.967Z,47.3
2018-07-24T10:11:52.405Z,47.4
2018-07-24T10:12:44.551Z,47.5
2018-07-24T10:13:33.327Z,47.7
2018-07-24T10:14:22.544Z,47.7
2018-07-24T10:15:13.190Z,47.7
2018-07-24T10:16:02.699Z,47.7
2018-07-24T10:16:53.965Z,47.7
2018-07-24T10:17:43.373Z,47.8
2018-07-24T10:18:33.703Z,47.9
2018-07-24T10:19:22.987Z,48.1
2018-07-24T10:20:12.244Z,48.3
2018-07-24T10:21:03.099Z,48.5
2018-07-24T10:21:53.138Z,48.9
2018-07-24T10:22:44.032Z,49.4
2018-07-24T10:23:34.106Z,49.4
2018-07-24T10:24:23.109Z,49.2
2018-07-24T10:25:14.233Z,48.9
2018-07-24T10:26:04.090Z,48.7
2018-07-24T10:26:53.864Z,48.6
2018-07-24T10:27:43.582Z,48.6
2018-07-24T10:28:34.258Z,48.9
2018-07-24T10:29:24.310Z,49.8
2018-07-24T10:30:14.395Z,50.8
2018-07-24T10:31:04.110Z,51.4
2018-07-24T10:31:54.165Z,51.3
2018-07-24T10:32:44.830Z,50.9
2018-07-24T10:33:34.060Z,50.8
2018-07-24T10:34:24.099Z,51
2018-07-24T10:35:15.038Z,50.8
2018-07-24T10:36:05.149Z,50.6
2018-07-24T10:36:54.461Z,50.9
2018-07-24T10:37:44.986Z,51.4
2018-07-24T10:38:35.045Z,51.5
2018-07-24T10:39:24.859Z,51.7
2018-07-24T10:40:15.464Z,52.3
2018-07-24T10:41:05.255Z,52.8
2018-07-24T10:41:54.719Z,52.9
2018-07-24T10:42:45.059Z,53.3
2018-07-24T10:43:34.825Z,53.5
2018-07-24T10:44:25.758Z,53.3
2018-07-24T10:45:15.518Z,53.3
2018-07-24T10:46:04.772Z,53.9
2018-07-24T10:46:55.365Z,54.3
2018-07-24T10:47:45.453Z,54.3
2018-07-24T10:48:35.493Z,53.6
2018-07-24T10:49:26.418Z,52.8
2018-07-24T10:50:15.612Z,52.3
2018-07-24T10:51:56.142Z,51.8
2018-07-24T10:52:45.842Z,51.8
2018-07-24T10:53:35.636Z,51.5
2018-07-24T10:54:25.141Z,51.3
2018-07-24T10:55:15.738Z,51
2018-07-24T10:56:06.769Z,51.4
2018-07-24T10:56:56.360Z,52.3
2018-07-24T10:57:46.201Z,53.4
2018-07-24T10:58:36.495Z,54.1
2018-07-24T10:59:26.578Z,54.3
2018-07-24T11:00:16.910Z,54.2
2018-07-24T11:01:06.726Z,54.1
2018-07-24T11:01:57.034Z,54.3
2018-07-24T11:02:46.041Z,54.8
2018-07-24T11:03:36.729Z,55.5
2018-07-24T11:04:27.265Z,56.1
2018-07-24T11:05:17.439Z,56
2018-07-24T11:06:07.138Z,55.3
2018-07-24T11:06:57.470Z,54.4
2018-07-24T11:07:47.240Z,53.6
2018-07-24T11:08:36.577Z,53.1